createdAt,value
2022-12-19T00:04:15.753Z,11.13
2022-12-19T00:09:18.911Z,11.09
2022-12-19T00:14:38.573Z,11.05
2022-12-19T00:19:45.916Z,11.02
2022-12-19T00:24:58.309Z,10.97
2022-12-19T00:30:03.067Z,10.93
2022-12-19T00:35:13.990Z,10.87
2022-12-19T00:40:34.221Z,10.83
2022-12-19T00:45:38.924Z,10.79
2022-12-19T00:50:47.333Z,10.78
2022-12-19T00:55:52.938Z,10.75
2022-12-19T01:00:58.765Z,10.77
2022-12-19T01:11:55.269Z,10.77
2022-12-19T01:17:03.818Z,10.73
2022-12-19T01:22:13.535Z,10.68
2022-12-19T01:27:48.996Z,10.62
2022-12-19T01:38:23.740Z,10.52
2022-12-19T01:43:30.885Z,10.51
2022-12-19T01:48:44.734Z,10.50
2022-12-19T01:53:57.193Z,10.50
2022-12-19T01:59:11.786Z,10.49
2022-12-19T02:09:39.152Z,10.48
2022-12-19T02:14:48.107Z,10.48
2022-12-19T02:20:31.877Z,10.43
2022-12-19T02:26:11.098Z,10.42
2022-12-19T02:31:37.153Z,10.42
2022-12-19T02:41:14.584Z,10.36
2022-12-19T02:46:22.917Z,10.34
2022-12-19T02:51:34.227Z,10.31
2022-12-19T02:57:15.587Z,10.32
2022-12-19T03:03:12.851Z,10.30
2022-12-19T03:08:33.812Z,10.27
2022-12-19T03:19:24.127Z,10.20
2022-12-19T03:24:29.595Z,10.19
2022-12-19T03:29:50.110Z,10.17
2022-12-19T03:35:29.374Z,10.15
2022-12-19T03:40:36.136Z,10.14
2022-12-19T03:46:19.567Z,10.15
2022-12-19T03:51:59.607Z,10.17
2022-12-19T03:57:28.045Z,10.15
2022-12-19T04:02:38.131Z,10.16
2022-12-19T04:07:42.978Z,10.14
2022-12-19T04:13:30.715Z,10.16
2022-12-19T04:18:58.643Z,10.15
2022-12-19T04:24:18.815Z,10.14
2022-12-19T04:34:45.593Z,10.05
2022-12-19T04:39:50.498Z,9.99
2022-12-19T04:50:07.601Z,9.93
2022-12-19T04:55:12.592Z,9.89
2022-12-19T05:07:03.435Z,9.86
2022-12-19T05:16:44.838Z,9.88
2022-12-19T05:21:46.760Z,9.92
2022-12-19T05:26:49.729Z,9.90
2022-12-19T05:32:00.581Z,9.91
2022-12-19T05:37:07.798Z,9.93
2022-12-19T05:42:13.444Z,9.95
2022-12-19T05:47:15.324Z,9.92
2022-12-19T05:52:17.202Z,9.89
2022-12-19T05:57:40.916Z,9.89
2022-12-19T06:02:47.785Z,9.87
2022-12-19T06:07:53.292Z,9.85
2022-12-19T06:12:57.394Z,9.83
2022-12-19T06:18:00.938Z,9.83
2022-12-19T06:23:03.738Z,9.81
2022-12-19T06:28:12.654Z,9.78
2022-12-19T06:33:15.834Z,9.78
2022-12-19T06:38:24.285Z,9.78
2022-12-19T06:43:27.653Z,9.79
2022-12-19T06:48:30.446Z,9.77
2022-12-19T06:53:35.470Z,9.72
2022-12-19T06:58:39.887Z,9.71
2022-12-19T07:03:46.796Z,9.70
2022-12-19T07:09:16.228Z,9.70
2022-12-19T07:14:28.504Z,9.71
2022-12-19T07:19:37.492Z,9.72
2022-12-19T07:24:41.745Z,9.74
2022-12-19T07:29:44.150Z,9.78
2022-12-19T07:34:47.869Z,9.83
2022-12-19T07:39:52.865Z,9.89
2022-12-19T07:44:56.170Z,9.97
2022-12-19T07:50:04.289Z,10.04
2022-12-19T07:55:08.644Z,10.10
2022-12-19T08:00:16.423Z,10.27
2022-12-19T08:05:19.219Z,11.65
2022-12-19T08:10:28.436Z,13.70
2022-12-19T08:15:40.319Z,15.19
2022-12-19T08:20:47.259Z,17.43
2022-12-19T08:26:00.970Z,19.61
2022-12-19T08:31:12.251Z,21.56
2022-12-19T08:36:21.660Z,22.62
2022-12-19T08:41:27.334Z,23.16
2022-12-19T08:46:35.014Z,22.77
2022-12-19T08:51:45.532Z,22.55
2022-12-19T08:56:52.493Z,22.25
2022-12-19T09:01:56.420Z,22.02
2022-12-19T09:07:03.156Z,21.58
2022-12-19T09:12:07.133Z,20.95
2022-12-19T09:17:10.326Z,20.65
2022-12-19T09:22:13.792Z,20.39
2022-12-19T09:27:47.419Z,20.21
2022-12-19T09:32:58.118Z,19.89
2022-12-19T09:38:10.303Z,19.61
2022-12-19T09:43:33.986Z,19.31
2022-12-19T09:48:41.505Z,18.78
2022-12-19T09:54:00.826Z,17.98
2022-12-19T09:59:39.883Z,17.27
2022-12-19T10:05:05.981Z,16.72
2022-12-19T10:12:39.648Z,16.61
2022-12-19T10:16:32.279Z,17.17
2022-12-19T10:22:17.632Z,17.61
2022-12-19T10:27:57.390Z,18.08
2022-12-19T10:33:39.136Z,18.44
2022-12-19T10:39:03.288Z,18.66
2022-12-19T10:44:10.361Z,18.91
2022-12-19T10:49:23.925Z,18.83
2022-12-19T10:54:46.753Z,18.41
2022-12-19T11:00:16.529Z,18.16
2022-12-19T11:05:42.753Z,18.06
2022-12-19T11:12:43.373Z,18.08
2022-12-19T11:22:56.152Z,17.85
2022-12-19T11:29:26.221Z,17.87
2022-12-19T11:30:43.173Z,17.65
2022-12-19T11:33:16.923Z,17.57
2022-12-19T11:38:54.531Z,17.66
2022-12-19T11:44:07.668Z,18.30
2022-12-19T11:49:29.039Z,18.65
2022-12-19T11:54:44.153Z,18.57
2022-12-19T11:59:51.438Z,18.50
2022-12-19T12:05:27.822Z,18.74
2022-12-19T12:15:01.755Z,18.61
2022-12-19T12:27:10.908Z,19.01
2022-12-19T12:31:39.146Z,19.37
2022-12-19T12:31:46.929Z,19.67
2022-12-19T12:35:31.528Z,19.46
2022-12-19T12:40:37.994Z,19.02
2022-12-19T12:45:47.845Z,18.67
2022-12-19T12:50:55.318Z,18.42
2022-12-19T12:56:12.588Z,18.17
2022-12-19T13:01:30.540Z,18.16
2022-12-19T13:06:43.704Z,18.17
2022-12-19T13:12:37.537Z,17.94
2022-12-19T13:18:00.743Z,17.87
2022-12-19T13:23:06.159Z,17.75
2022-12-19T13:28:24.883Z,17.71
2022-12-19T13:33:46.437Z,17.92
2022-12-19T13:40:02.200Z,18.12
2022-12-19T13:44:24.362Z,18.57
2022-12-19T13:49:35.567Z,18.84
2022-12-19T13:54:52.803Z,18.93
2022-12-19T14:00:04.353Z,19.00
2022-12-19T14:06:18.481Z,18.95
2022-12-19T14:11:34.803Z,18.71
2022-12-19T14:16:39.886Z,18.54
2022-12-19T14:22:04.468Z,18.37
2022-12-19T14:28:17.444Z,18.23
2022-12-19T14:33:43.502Z,18.18
2022-12-19T14:39:19.846Z,17.89
2022-12-19T14:52:11.722Z,17.66
2022-12-19T14:54:12.860Z,17.48
2022-12-19T14:56:19.577Z,17.37
2022-12-19T15:01:12.259Z,17.30
2022-12-19T15:07:06.812Z,17.33
2022-12-19T15:14:46.690Z,17.32
2022-12-19T15:17:47.225Z,17.26
2022-12-19T15:22:54.185Z,17.24
2022-12-19T15:27:58.059Z,17.18
2022-12-19T15:33:04.787Z,17.09
2022-12-19T15:38:17.479Z,16.97
2022-12-19T15:44:01.807Z,16.85
2022-12-19T15:48:54.650Z,16.73
2022-12-19T15:54:38.332Z,16.65
2022-12-19T15:59:36.555Z,16.55
2022-12-19T16:04:40.595Z,16.42
2022-12-19T16:09:44.249Z,16.29
2022-12-19T16:14:56.270Z,16.14
2022-12-19T16:19:59.999Z,16.02
2022-12-19T16:25:03.675Z,15.93
2022-12-19T16:30:26.822Z,15.83
2022-12-19T16:40:57.312Z,15.69
2022-12-19T16:46:01.967Z,15.64
2022-12-19T16:51:06.836Z,15.59
2022-12-19T16:56:25.125Z,15.52
2022-12-19T17:01:33.104Z,15.47
2022-12-19T17:06:41.344Z,15.45
2022-12-19T17:11:49.840Z,15.45
2022-12-19T17:17:03.072Z,15.44
2022-12-19T17:22:13.501Z,15.43
2022-12-19T17:27:20.678Z,15.42
2022-12-19T17:32:33.153Z,15.42
2022-12-19T17:37:35.934Z,15.40
2022-12-19T17:42:41.111Z,15.40
2022-12-19T17:47:47.174Z,15.38
2022-12-19T17:52:56.235Z,15.35
2022-12-19T17:58:04.024Z,15.34
2022-12-19T18:03:21.162Z,15.33
2022-12-19T18:08:34.780Z,15.32
2022-12-19T18:13:40.172Z,15.29
2022-12-19T18:18:46.157Z,15.28
2022-12-19T18:23:53.823Z,15.27
2022-12-19T18:29:05.322Z,15.26
2022-12-19T18:34:24.109Z,15.26
2022-12-19T18:39:29.668Z,15.25
2022-12-19T18:44:32.455Z,15.23
2022-12-19T18:49:39.950Z,15.21
2022-12-19T19:00:01.207Z,15.17
2022-12-19T19:05:05.734Z,15.17
2022-12-19T19:10:42.673Z,15.15
2022-12-19T19:16:01.748Z,15.14
2022-12-19T19:21:09.333Z,15.13
2022-12-19T19:26:16.387Z,15.13
2022-12-19T19:31:24.029Z,15.11
2022-12-19T19:36:30.677Z,15.09
2022-12-19T19:41:42.873Z,15.10
2022-12-19T19:46:47.448Z,15.08
2022-12-19T19:51:50.634Z,15.09
2022-12-19T19:56:56.588Z,15.08
2022-12-19T20:02:04.660Z,15.08
2022-12-19T20:07:08.131Z,15.07
2022-12-19T20:12:18.007Z,15.04
2022-12-19T20:17:23.600Z,14.64
2022-12-19T20:22:30.724Z,14.40
2022-12-19T20:27:35.140Z,14.22
2022-12-19T20:32:42.412Z,14.07
2022-12-19T20:37:46.259Z,14.06
2022-12-19T20:42:52.798Z,14.05
2022-12-19T20:48:00.717Z,14.03
2022-12-19T20:53:06.560Z,14.05
2022-12-19T20:58:12.513Z,14.06
2022-12-19T21:03:31.580Z,14.09
2022-12-19T21:08:36.401Z,14.12
2022-12-19T21:13:41.827Z,14.17
2022-12-19T21:18:48.051Z,14.21
2022-12-19T21:23:52.962Z,14.22
2022-12-19T21:29:00.519Z,14.22
2022-12-19T21:34:05.034Z,14.05
2022-12-19T21:39:14.195Z,13.95
2022-12-19T21:44:20.397Z,13.98
2022-12-19T21:49:26.111Z,14.02
2022-12-19T21:54:31.739Z,14.05
2022-12-19T21:59:36.470Z,14.03
2022-12-19T22:04:44.407Z,14.03
2022-12-19T22:09:47.723Z,14.04
2022-12-19T22:14:55.692Z,13.78
2022-12-19T22:20:02.005Z,13.65
2022-12-19T22:25:07.851Z,13.65
2022-12-19T22:30:13.449Z,13.71
2022-12-19T22:35:19.071Z,13.75
2022-12-19T22:40:23.646Z,13.79
2022-12-19T22:45:26.162Z,13.81
2022-12-19T22:50:29.963Z,13.84
2022-12-19T22:55:34.429Z,13.85
2022-12-19T23:00:42.725Z,13.85
2022-12-19T23:05:58.719Z,13.84
2022-12-19T23:11:02.300Z,13.84
2022-12-19T23:16:11.050Z,13.82
2022-12-19T23:21:28.615Z,13.80
2022-12-19T23:26:43.699Z,13.78
2022-12-19T23:31:48.350Z,13.76
2022-12-19T23:42:21.064Z,13.73
2022-12-19T23:47:24.259Z,13.69
2022-12-19T23:52:31.772Z,13.66
2022-12-19T23:57:40.612Z,13.64
